Time;durP1;ratioP1;P1;durP2;ratioP2;P2;SDS_P1;SDS_P2;PMS_P1;PMS_P2;Temp;Humidity;BMP_temperature;BMP_pressure;BME280_temperature;BME280_humidity;BME280_pressure;Samples;Min_cycle;Max_cycle;Signal;HPM_P1;HPM_P2
2021/01/05 00:03:05;;;;;;;12.60;10.73;;;5.40;43.10;;;;;;10409459;28;20332;-72
2021/01/05 00:08:07;;;;;;;9.93;8.87;;;5.40;43.10;;;;;;10413885;28;20242;-72
2021/01/05 00:13:10;;;;;;;11.13;9.80;;;5.40;43.00;;;;;;10411626;28;20232;-72
2021/01/05 00:18:12;;;;;;;10.83;9.73;;;5.40;43.10;;;;;;10409612;28;20736;-71
2021/01/05 00:23:15;;;;;;;10.33;9.17;;;5.40;42.90;;;;;;10413925;28;20266;-72
2021/01/05 00:28:18;;;;;;;10.87;9.77;;;5.40;42.80;;;;;;10415429;28;20904;-72
2021/01/05 00:33:20;;;;;;;10.43;9.33;;;5.40;42.90;;;;;;10415859;28;20567;-72
2021/01/05 00:38:22;;;;;;;10.77;9.67;;;5.30;42.90;;;;;;10413892;28;20222;-72
2021/01/05 00:43:25;;;;;;;12.33;9.93;;;5.30;42.90;;;;;;10420152;28;20689;-72
2021/01/05 00:48:27;;;;;;;13.00;10.70;;;5.30;43.00;;;;;;10409052;28;20531;-72
2021/01/05 00:53:30;;;;;;;12.50;10.27;;;5.20;42.90;;;;;;10415032;28;20495;-72
2021/01/05 00:58:33;;;;;;;10.17;8.60;;;5.30;43.00;;;;;;10416422;28;20309;-72
2021/01/05 01:03:35;;;;;;;12.40;10.50;;;5.30;43.00;;;;;;10409972;28;20315;-72
2021/01/05 01:08:38;;;;;;;11.47;10.27;;;5.30;43.00;;;;;;10410568;28;20579;-71
2021/01/05 01:13:41;;;;;;;11.40;10.20;;;5.30;43.00;;;;;;10408588;28;20231;-72
2021/01/05 01:18:43;;;;;;;12.27;10.27;;;5.40;43.10;;;;;;10412904;28;20238;-72
2021/01/05 01:23:45;;;;;;;11.30;10.10;;;5.40;43.10;;;;;;10411175;28;20222;-72
2021/01/05 01:28:48;;;;;;;11.90;9.97;;;5.40;43.10;;;;;;10416576;28;20237;-72
2021/01/05 01:33:51;;;;;;;10.47;9.17;;;5.40;43.10;;;;;;10410944;28;20237;-72
2021/01/05 01:38:53;;;;;;;12.27;10.30;;;5.40;43.10;;;;;;10411516;28;20229;-72
2021/01/05 01:43:56;;;;;;;13.60;11.00;;;5.40;43.10;;;;;;10410987;28;20229;-72
2021/01/05 01:48:59;;;;;;;10.47;9.40;;;5.40;43.10;;;;;;10408198;28;20583;-72
2021/01/05 01:54:28;;;;;;;12.50;10.37;;;5.40;43.10;;;;;;10406292;28;20320;-72
2021/01/05 01:59:52;;;;;;;11.13;9.93;;;5.40;43.30;;;;;;10411832;28;20233;-72
2021/01/05 02:05:07;;;;;;;10.93;9.67;;;5.40;43.20;;;;;;10413493;28;20235;-72
2021/01/05 02:10:41;;;;;;;11.93;10.50;;;5.40;43.20;;;;;;10424770;28;20225;-72
2021/01/05 02:15:56;;;;;;;10.37;9.27;;;5.40;43.30;;;;;;10423964;28;20225;-72
2021/01/05 02:21:02;;;;;;;11.53;10.30;;;5.40;43.20;;;;;;10429718;28;20217;-72
2021/01/05 02:26:11;;;;;;;11.87;9.87;;;5.40;43.10;;;;;;10427869;28;20227;-72
2021/01/05 02:31:25;;;;;;;11.37;10.17;;;5.40;43.20;;;;;;10434038;28;20227;-71
2021/01/05 02:36:52;;;;;;;10.57;9.07;;;5.40;43.20;;;;;;10439659;28;20312;-71
2021/01/05 02:42:21;;;;;;;9.70;8.70;;;5.40;43.30;;;;;;10434453;28;20601;-71
2021/01/05 02:47:58;;;;;;;13.00;11.00;;;5.40;43.30;;;;;;10429550;28;20229;-71
2021/01/05 02:53:29;;;;;;;9.47;8.50;;;5.40;43.40;;;;;;10434585;28;20226;-71
2021/01/05 02:59:11;;;;;;;10.47;9.47;;;5.40;43.30;;;;;;10451697;28;20648;-72
2021/01/05 03:04:14;;;;;;;11.93;10.23;;;5.40;43.50;;;;;;10383650;28;20232;-72
2021/01/05 03:09:42;;;;;;;12.20;10.60;;;5.40;43.20;;;;;;10436532;28;20229;-72
2021/01/05 03:14:56;;;;;;;9.63;8.43;;;5.40;43.60;;;;;;10419956;28;20712;-72
2021/01/05 03:20:09;;;;;;;12.70;10.87;;;5.40;43.50;;;;;;10436125;28;20302;-72
2021/01/05 03:25:12;;;;;;;11.80;10.50;;;5.40;43.50;;;;;;10428264;28;20217;-72
2021/01/05 03:30:23;;;;;;;13.40;10.77;;;5.40;43.10;;;;;;10437762;28;20224;-72
2021/01/05 03:35:27;;;;;;;12.50;10.60;;;5.40;43.50;;;;;;10435821;28;20597;-72
2021/01/05 03:40:29;;;;;;;12.13;10.90;;;5.40;43.10;;;;;;10438678;28;20702;-72
2021/01/05 03:45:32;;;;;;;13.07;10.53;;;5.40;43.10;;;;;;10429755;28;20226;-72
2021/01/05 03:50:35;;;;;;;12.57;10.77;;;5.40;43.20;;;;;;10436000;28;20226;-72
2021/01/05 03:55:37;;;;;;;12.37;10.53;;;5.40;43.10;;;;;;10437043;28;20231;-72
2021/01/05 04:00:40;;;;;;;12.40;10.93;;;5.40;43.30;;;;;;10430317;28;20275;-71
2021/01/05 04:05:42;;;;;;;10.37;9.20;;;5.40;43.30;;;;;;10429044;28;20241;-72
2021/01/05 04:10:44;;;;;;;12.43;11.13;;;5.40;43.30;;;;;;10415724;28;20232;-72
2021/01/05 04:15:47;;;;;;;12.33;11.03;;;5.40;43.40;;;;;;10414785;28;20259;-72
2021/01/05 04:20:50;;;;;;;12.07;10.53;;;5.40;43.50;;;;;;10409352;28;20230;-72
2021/01/05 04:25:53;;;;;;;13.37;11.80;;;5.40;43.40;;;;;;10415991;28;20617;-72
2021/01/05 04:30:56;;;;;;;14.80;11.73;;;5.40;43.50;;;;;;10412760;28;20226;-72
2021/01/05 04:35:58;;;;;;;12.57;10.53;;;5.40;43.60;;;;;;10417744;28;20275;-72
2021/01/05 04:41:01;;;;;;;12.50;11.10;;;5.40;43.50;;;;;;10410078;28;20236;-72
2021/01/05 04:46:47;;;;;;;13.53;12.13;;;5.40;43.40;;;;;;10407969;28;20316;-72
2021/01/05 04:51:58;;;;;;;14.33;11.83;;;5.40;43.70;;;;;;10413145;28;20710;-72
2021/01/05 04:57:09;;;;;;;16.77;12.90;;;5.40;43.50;;;;;;10414412;28;20736;-72
2021/01/05 05:02:22;;;;;;;14.83;11.83;;;5.30;43.60;;;;;;10407147;28;20237;-72
2021/01/05 05:07:38;;;;;;;12.80;10.97;;;5.30;43.70;;;;;;10413175;28;20249;-72
2021/01/05 05:12:45;;;;;;;12.53;10.80;;;5.30;43.80;;;;;;10407385;28;20228;-72
2021/01/05 05:18:29;;;;;;;11.57;9.90;;;5.30;43.70;;;;;;10407853;28;20234;-72
2021/01/05 05:23:47;;;;;;;13.27;11.37;;;5.30;43.90;;;;;;10405354;28;20674;-72
2021/01/05 05:28:54;;;;;;;13.10;11.70;;;5.40;44.00;;;;;;10409501;28;20626;-72
2021/01/05 05:34:00;;;;;;;13.53;11.87;;;5.40;43.80;;;;;;10412516;28;20858;-72
2021/01/05 05:39:19;;;;;;;12.57;10.13;;;5.40;43.80;;;;;;10409196;28;20234;-72
2021/01/05 05:44:27;;;;;;;13.13;10.93;;;5.40;43.90;;;;;;10406597;28;20233;-72
2021/01/05 05:49:37;;;;;;;15.97;13.00;;;5.40;44.00;;;;;;10408308;28;20225;-72
2021/01/05 05:54:40;;;;;;;12.63;11.10;;;5.40;44.00;;;;;;10411847;28;20232;-72
2021/01/05 05:59:47;;;;;;;16.47;13.50;;;5.40;43.80;;;;;;10405734;28;20253;-72
2021/01/05 06:04:52;;;;;;;15.33;12.03;;;5.40;44.00;;;;;;10420172;28;20582;-72
2021/01/05 06:09:55;;;;;;;15.90;13.40;;;5.40;43.80;;;;;;10413813;28;20702;-72
2021/01/05 06:14:57;;;;;;;18.13;14.37;;;5.40;43.80;;;;;;10424190;28;20225;-72
2021/01/05 06:19:59;;;;;;;16.70;12.87;;;5.50;43.80;;;;;;10423353;28;20460;-72
2021/01/05 06:25:03;;;;;;;16.20;13.87;;;5.40;43.80;;;;;;10421651;28;20233;-72
2021/01/05 06:30:07;;;;;;;18.70;14.60;;;5.50;43.90;;;;;;10413409;28;20222;-72
2021/01/05 06:35:11;;;;;;;16.10;13.07;;;5.50;43.90;;;;;;10421617;28;20252;-72
2021/01/05 06:40:15;;;;;;;18.33;13.10;;;5.50;43.80;;;;;;10418460;28;20221;-72
2021/01/05 06:45:21;;;;;;;18.40;13.43;;;5.50;43.80;;;;;;10419729;28;20229;-72
2021/01/05 06:50:28;;;;;;;16.23;12.33;;;5.40;43.60;;;;;;10416613;28;20224;-72
2021/01/05 06:55:31;;;;;;;14.73;11.77;;;5.40;43.60;;;;;;10419335;28;20225;-72
2021/01/05 07:00:33;;;;;;;18.10;12.27;;;5.30;43.60;;;;;;10417764;28;20316;-72
2021/01/05 07:05:35;;;;;;;18.13;13.13;;;5.30;43.60;;;;;;10418107;28;20226;-72
2021/01/05 07:10:38;;;;;;;19.10;13.27;;;5.30;43.60;;;;;;10416678;28;20761;-72
2021/01/05 07:15:41;;;;;;;16.03;12.23;;;5.30;43.60;;;;;;10423606;28;20655;-72
2021/01/05 07:20:43;;;;;;;15.83;10.97;;;5.20;43.30;;;;;;10411490;28;20221;-72
2021/01/05 07:25:46;;;;;;;14.40;11.23;;;5.20;43.40;;;;;;10424112;28;20319;-72
2021/01/05 07:30:48;;;;;;;19.23;13.27;;;5.20;43.60;;;;;;10410870;28;20253;-72
2021/01/05 07:35:50;;;;;;;15.60;12.03;;;5.20;43.50;;;;;;10418071;28;20232;-72
2021/01/05 07:40:53;;;;;;;17.53;12.50;;;5.20;43.40;;;;;;10410772;28;20237;-72
2021/01/05 07:45:56;;;;;;;16.90;11.83;;;5.20;43.30;;;;;;10413132;28;20595;-72
2021/01/05 07:50:59;;;;;;;16.00;12.77;;;5.10;43.30;;;;;;10415354;28;20232;-72
2021/01/05 07:56:02;;;;;;;18.33;13.20;;;5.10;43.20;;;;;;10422000;28;20232;-72
2021/01/05 08:01:04;;;;;;;18.63;13.17;;;5.10;43.50;;;;;;10411208;28;20228;-72
2021/01/05 08:06:08;;;;;;;19.33;13.63;;;5.10;43.40;;;;;;10420697;28;20225;-72
2021/01/05 08:11:11;;;;;;;16.47;11.60;;;5.10;43.60;;;;;;10420609;28;20232;-72
2021/01/05 08:16:14;;;;;;;21.20;15.20;;;5.10;43.60;;;;;;10409363;28;20229;-72
2021/01/05 08:21:22;;;;;;;17.87;14.10;;;5.10;43.50;;;;;;10420252;28;20219;-72
2021/01/05 08:26:25;;;;;;;16.80;12.77;;;5.10;43.70;;;;;;10419452;28;20234;-71
2021/01/05 08:31:32;;;;;;;17.87;13.23;;;5.10;43.60;;;;;;10427208;28;20231;-72
2021/01/05 08:36:35;;;;;;;17.03;12.87;;;5.10;43.60;;;;;;10436019;28;20308;-72
2021/01/05 08:41:38;;;;;;;18.47;13.20;;;5.10;43.40;;;;;;10425562;28;20231;-72
2021/01/05 08:46:42;;;;;;;17.60;12.50;;;5.10;43.60;;;;;;10417411;28;20706;-72
2021/01/05 08:51:45;;;;;;;21.47;14.40;;;5.00;43.60;;;;;;10427012;28;20227;-72
2021/01/05 08:56:53;;;;;;;22.10;16.50;;;5.00;43.50;;;;;;10427258;28;20229;-71
2021/01/05 09:01:56;;;;;;;23.70;17.60;;;5.00;43.70;;;;;;10427391;28;20225;-71
2021/01/05 09:06:59;;;;;;;22.07;18.23;;;5.00;43.60;;;;;;10420606;28;20291;-72
2021/01/05 09:12:02;;;;;;;23.57;18.17;;;5.10;43.70;;;;;;10408029;28;20244;-72
2021/01/05 09:17:04;;;;;;;18.30;14.63;;;5.10;43.80;;;;;;10427732;28;20221;-72
2021/01/05 09:22:07;;;;;;;21.37;14.33;;;5.10;43.60;;;;;;10426822;28;20316;-72
2021/01/05 09:27:10;;;;;;;19.80;14.83;;;5.10;43.70;;;;;;10422528;28;20592;-71
2021/01/05 09:32:12;;;;;;;20.33;14.50;;;5.00;43.60;;;;;;10414907;28;20722;-72
2021/01/05 09:37:14;;;;;;;20.37;13.33;;;5.00;43.60;;;;;;10420070;28;20230;-72
2021/01/05 09:42:18;;;;;;;19.70;14.67;;;4.90;43.80;;;;;;10424170;28;20732;-72
2021/01/05 09:47:20;;;;;;;18.67;13.87;;;5.00;44.00;;;;;;10429044;28;20237;-72
2021/01/05 09:52:24;;;;;;;18.50;15.20;;;5.00;44.20;;;;;;10433665;28;20224;-72
2021/01/05 09:57:27;;;;;;;17.33;13.87;;;5.00;43.90;;;;;;10449692;28;20238;-71
2021/01/05 10:02:29;;;;;;;17.50;13.70;;;5.00;43.70;;;;;;10477986;28;20243;-71
2021/01/05 10:07:31;;;;;;;16.37;11.90;;;5.00;43.80;;;;;;10480773;28;20566;-71
2021/01/05 10:12:35;;;;;;;15.47;11.67;;;5.00;43.90;;;;;;10470143;28;20335;-71
2021/01/05 10:17:37;;;;;;;15.93;11.43;;;5.10;44.00;;;;;;10447967;28;20256;-71
2021/01/05 10:22:40;;;;;;;13.23;10.27;;;5.10;43.80;;;;;;10468875;28;20490;-71
2021/01/05 10:27:43;;;;;;;15.30;11.47;;;5.20;43.60;;;;;;10468369;28;20256;-71
2021/01/05 10:32:49;;;;;;;14.93;11.57;;;5.20;43.50;;;;;;10466020;28;20235;-72
2021/01/05 10:37:51;;;;;;;13.17;9.47;;;5.20;43.70;;;;;;10472259;28;20224;-72
2021/01/05 10:42:54;;;;;;;15.53;11.57;;;5.20;43.70;;;;;;10476621;28;20232;-72
2021/01/05 10:47:57;;;;;;;15.47;11.87;;;5.20;43.50;;;;;;10449387;28;20237;-71
2021/01/05 10:52:59;;;;;;;16.27;12.20;;;5.30;43.60;;;;;;10458674;28;20232;-71
2021/01/05 10:58:03;;;;;;;14.47;11.50;;;5.30;43.70;;;;;;10443933;28;20231;-71
2021/01/05 11:03:06;;;;;;;17.93;12.57;;;5.40;43.70;;;;;;10446745;28;20260;-71
2021/01/05 11:08:08;;;;;;;15.20;11.83;;;5.40;43.70;;;;;;10442392;28;20705;-70
2021/01/05 11:13:11;;;;;;;15.77;12.43;;;5.40;43.60;;;;;;10439335;28;20225;-70
2021/01/05 11:18:13;;;;;;;17.00;12.27;;;5.50;43.50;;;;;;10434213;28;20237;-70
2021/01/05 11:23:16;;;;;;;14.73;11.13;;;5.50;43.60;;;;;;10433925;28;20225;-70
2021/01/05 11:28:19;;;;;;;15.73;12.03;;;5.50;43.60;;;;;;10463455;28;20240;-70
2021/01/05 11:33:21;;;;;;;15.80;11.63;;;5.50;43.60;;;;;;10473858;28;20228;-70
2021/01/05 11:38:23;;;;;;;16.67;12.07;;;5.50;43.30;;;;;;10472534;28;20228;-71
2021/01/05 11:43:32;;;;;;;17.00;13.13;;;5.60;43.30;;;;;;10474599;28;20219;-71
2021/01/05 11:48:34;;;;;;;17.40;13.57;;;5.50;43.50;;;;;;10482618;28;20285;-72
2021/01/05 11:53:36;;;;;;;17.63;12.73;;;5.50;43.60;;;;;;10475410;28;20308;-72
2021/01/05 11:58:40;;;;;;;18.13;14.23;;;5.50;43.60;;;;;;10473087;28;20254;-72
2021/01/05 12:03:42;;;;;;;17.77;13.53;;;5.60;43.60;;;;;;10469974;28;20231;-72
2021/01/05 12:08:45;;;;;;;16.17;12.70;;;5.60;43.60;;;;;;10470801;28;20773;-72
2021/01/05 12:13:49;;;;;;;20.13;13.90;;;5.60;43.70;;;;;;10471823;28;20225;-72
2021/01/05 12:18:51;;;;;;;17.53;12.93;;;5.60;43.60;;;;;;10466872;28;20229;-72
2021/01/05 12:23:54;;;;;;;18.07;13.67;;;5.60;43.40;;;;;;10441729;28;20221;-72
2021/01/05 12:28:58;;;;;;;17.70;13.03;;;5.70;43.40;;;;;;10428795;28;20233;-72
2021/01/05 12:34:01;;;;;;;18.57;13.60;;;5.70;43.30;;;;;;10430683;28;20313;-72
2021/01/05 12:39:05;;;;;;;18.77;13.43;;;5.60;43.20;;;;;;10432380;28;20229;-72
2021/01/05 12:44:09;;;;;;;18.67;14.10;;;5.60;43.30;;;;;;10447746;28;20319;-72
2021/01/05 12:49:14;;;;;;;23.73;17.47;;;5.60;43.20;;;;;;10450151;28;20599;-72
2021/01/05 12:54:17;;;;;;;20.93;15.37;;;5.50;43.30;;;;;;10437899;28;20309;-72
2021/01/05 12:59:35;;;;;;;20.27;15.80;;;5.50;43.50;;;;;;10429249;28;20279;-72
2021/01/05 13:04:37;;;;;;;21.70;16.83;;;5.50;43.40;;;;;;10434944;28;20223;-72
2021/01/05 13:09:40;;;;;;;23.33;15.90;;;5.50;43.20;;;;;;10430928;28;20311;-72
2021/01/05 13:14:43;;;;;;;22.33;16.57;;;5.40;43.10;;;;;;10433857;28;20221;-72
2021/01/05 13:19:45;;;;;;;22.67;16.83;;;5.30;43.30;;;;;;10436584;28;20229;-72
2021/01/05 13:24:47;;;;;;;26.70;18.00;;;5.20;44.30;;;;;;10435979;28;20225;-71
2021/01/05 13:29:50;;;;;;;22.07;15.83;;;5.20;43.60;;;;;;10435250;28;20307;-71
2021/01/05 13:34:53;;;;;;;23.10;15.97;;;5.20;43.80;;;;;;10431883;28;20249;-71
2021/01/05 13:39:55;;;;;;;21.80;16.20;;;5.20;43.80;;;;;;10439303;28;20217;-71
2021/01/05 13:44:58;;;;;;;20.97;16.20;;;5.20;43.80;;;;;;10459981;28;20251;-71
2021/01/05 13:50:00;;;;;;;23.40;16.43;;;5.20;43.80;;;;;;10471527;28;20225;-71
2021/01/05 13:55:20;;;;;;;26.50;17.00;;;5.30;43.70;;;;;;10459120;28;20228;-72
2021/01/05 14:00:24;;;;;;;20.17;14.10;;;5.30;43.80;;;;;;10463068;28;20597;-70
2021/01/05 14:05:26;;;;;;;20.63;15.40;;;5.40;44.50;;;;;;10463455;28;20237;-71
2021/01/05 14:10:28;;;;;;;18.43;14.00;;;5.50;43.90;;;;;;10471484;28;20232;-72
2021/01/05 14:15:31;;;;;;;21.80;16.10;;;5.50;43.70;;;;;;10467660;28;20240;-71
2021/01/05 14:20:34;;;;;;;21.37;15.00;;;5.50;43.60;;;;;;10478208;28;20230;-72
2021/01/05 14:25:36;;;;;;;19.33;14.53;;;5.50;43.50;;;;;;10480246;28;20232;-72
2021/01/05 14:30:39;;;;;;;19.90;15.07;;;5.60;43.20;;;;;;10489318;28;20246;-71
2021/01/05 14:35:41;;;;;;;21.43;16.13;;;5.60;43.30;;;;;;10481502;28;20282;-72
2021/01/05 14:40:46;;;;;;;19.83;14.43;;;5.60;43.20;;;;;;10473366;28;20312;-72
2021/01/05 14:45:49;;;;;;;20.90;15.63;;;5.60;43.00;;;;;;10484714;28;20239;-72
2021/01/05 14:50:52;;;;;;;16.10;12.07;;;5.60;43.20;;;;;;10482176;28;20328;-72
2021/01/05 14:55:54;;;;;;;20.33;14.63;;;5.60;44.50;;;;;;10482491;28;20259;-72
2021/01/05 15:00:57;;;;;;;18.40;14.03;;;5.70;43.60;;;;;;10455939;28;20225;-73
2021/01/05 15:05:59;;;;;;;20.33;14.43;;;5.80;43.40;;;;;;10436640;28;20677;-73
2021/01/05 15:11:01;;;;;;;18.97;13.70;;;5.80;43.30;;;;;;10486814;28;20216;-72
2021/01/05 15:16:05;;;;;;;19.73;15.37;;;5.80;43.10;;;;;;10481189;28;20249;-73
2021/01/05 15:21:08;;;;;;;18.23;12.77;;;5.80;43.10;;;;;;10440148;28;20233;-73
2021/01/05 15:26:10;;;;;;;24.07;16.77;;;5.80;43.30;;;;;;10448908;28;20235;-73
2021/01/05 15:31:13;;;;;;;20.03;15.37;;;5.80;43.30;;;;;;10455564;28;20602;-72
2021/01/05 15:36:16;;;;;;;21.77;17.57;;;5.80;43.30;;;;;;10468888;28;20220;-73
2021/01/05 15:41:19;;;;;;;22.00;16.90;;;5.80;43.30;;;;;;10475849;28;20234;-73
2021/01/05 15:46:25;;;;;;;22.20;16.53;;;5.80;43.40;;;;;;10474700;28;20970;-73
2021/01/05 15:51:27;;;;;;;18.07;13.40;;;5.90;43.30;;;;;;10474020;28;20232;-72
2021/01/05 15:56:29;;;;;;;24.27;18.00;;;5.90;43.40;;;;;;10469265;28;20739;-72
2021/01/05 16:01:35;;;;;;;23.50;17.60;;;5.90;43.40;;;;;;10470701;28;20228;-72
2021/01/05 16:06:41;;;;;;;24.57;17.87;;;5.90;43.10;;;;;;10475140;28;20697;-72
2021/01/05 16:11:49;;;;;;;21.50;16.73;;;5.90;43.20;;;;;;10474398;28;20304;-72
2021/01/05 16:16:54;;;;;;;19.57;15.40;;;5.90;43.20;;;;;;10475383;28;20224;-72
2021/01/05 16:21:58;;;;;;;20.87;15.43;;;5.90;43.00;;;;;;10471866;28;20247;-72
2021/01/05 16:27:02;;;;;;;23.07;17.67;;;5.80;42.80;;;;;;10472551;28;20229;-73
2021/01/05 16:32:05;;;;;;;24.33;17.27;;;5.80;42.90;;;;;;10457301;28;20343;-72
2021/01/05 16:37:09;;;;;;;23.67;19.20;;;5.80;42.90;;;;;;10476894;28;20230;-72
2021/01/05 16:42:12;;;;;;;27.53;20.50;;;5.70;42.80;;;;;;10469750;28;20587;-73
2021/01/05 16:47:15;;;;;;;26.43;18.40;;;5.70;43.00;;;;;;10473279;28;20322;-74
2021/01/05 16:52:17;;;;;;;22.07;17.23;;;5.60;43.20;;;;;;10457548;28;20644;-74
2021/01/05 16:57:19;;;;;;;22.93;17.47;;;5.60;43.20;;;;;;10478043;28;20229;-75
2021/01/05 17:02:22;;;;;;;22.17;16.73;;;5.60;43.20;;;;;;10465830;28;20233;-75
2021/01/05 17:07:25;;;;;;;26.23;18.90;;;5.60;43.30;;;;;;10434401;28;20225;-75
2021/01/05 17:12:28;;;;;;;28.90;21.00;;;5.70;43.30;;;;;;10443918;28;20307;-74
2021/01/05 17:17:32;;;;;;;29.43;22.67;;;5.70;43.30;;;;;;10466401;28;20220;-75
2021/01/05 17:22:35;;;;;;;29.33;21.37;;;5.70;43.30;;;;;;10459023;28;20225;-74
2021/01/05 17:27:37;;;;;;;28.63;20.93;;;5.70;43.30;;;;;;10478708;28;20236;-74
2021/01/05 17:32:40;;;;;;;23.33;18.57;;;5.80;43.40;;;;;;10476843;28;20704;-75
2021/01/05 17:37:43;;;;;;;25.43;18.87;;;5.80;43.40;;;;;;10470105;28;20324;-75
2021/01/05 17:42:45;;;;;;;24.90;19.47;;;5.80;43.40;;;;;;10487644;28;20663;-75
2021/01/05 17:47:51;;;;;;;25.77;17.93;;;5.80;43.40;;;;;;10460710;28;20260;-75
2021/01/05 17:52:54;;;;;;;18.30;14.90;;;5.80;43.40;;;;;;10469120;28;20228;-74
2021/01/05 17:57:57;;;;;;;23.37;17.30;;;5.80;43.40;;;;;;10452349;28;20236;-74
2021/01/05 18:03:00;;;;;;;18.37;13.93;;;5.80;43.40;;;;;;10466983;28;20217;-75
2021/01/05 18:08:04;;;;;;;25.13;18.87;;;5.80;43.40;;;;;;10432604;28;20239;-74
2021/01/05 18:13:06;;;;;;;23.53;17.87;;;5.80;43.40;;;;;;10466860;28;20230;-74
2021/01/05 18:18:09;;;;;;;23.37;16.90;;;5.80;43.40;;;;;;10479336;28;20572;-74
2021/01/05 18:23:13;;;;;;;23.83;17.90;;;5.80;43.40;;;;;;10441536;28;20359;-74
2021/01/05 18:28:16;;;;;;;24.47;17.47;;;5.70;43.30;;;;;;10471508;28;20229;-74
2021/01/05 18:33:19;;;;;;;24.93;17.57;;;5.70;43.30;;;;;;10484517;28;20227;-74
2021/01/05 18:38:21;;;;;;;22.53;16.30;;;5.60;43.20;;;;;;10483644;28;20319;-74
2021/01/05 18:43:23;;;;;;;23.10;17.13;;;5.60;43.20;;;;;;10489610;28;20228;-74
2021/01/05 18:48:27;;;;;;;21.47;15.93;;;5.50;43.20;;;;;;10491763;28;20235;-74
2021/01/05 18:53:29;;;;;;;18.43;14.23;;;5.50;43.50;;;;;;10480151;28;20224;-74
2021/01/05 18:58:31;;;;;;;21.87;17.17;;;5.50;43.50;;;;;;10468368;28;20229;-74
2021/01/05 19:03:35;;;;;;;24.87;16.93;;;5.50;43.40;;;;;;10469225;28;20224;-74
2021/01/05 19:08:37;;;;;;;25.20;17.53;;;5.50;43.50;;;;;;10491616;28;20604;-74
2021/01/05 19:13:39;;;;;;;25.07;17.30;;;5.50;43.40;;;;;;10472322;28;20311;-74
2021/01/05 19:18:42;;;;;;;24.07;17.80;;;5.50;43.30;;;;;;10481460;28;20231;-74
2021/01/05 19:23:45;;;;;;;26.43;18.73;;;5.50;43.50;;;;;;10485455;28;20224;-75
2021/01/05 19:28:48;;;;;;;23.30;17.10;;;5.40;43.10;;;;;;10480896;28;20236;-76
2021/01/05 19:33:52;;;;;;;26.23;18.30;;;5.40;43.20;;;;;;10474619;28;20642;-75
2021/01/05 19:38:56;;;;;;;25.30;17.80;;;5.30;43.30;;;;;;10481338;28;20225;-74
2021/01/05 19:43:58;;;;;;;24.20;16.53;;;5.30;43.30;;;;;;10455635;28;20617;-74
2021/01/05 19:49:04;;;;;;;23.47;17.97;;;5.20;43.30;;;;;;10451455;28;20233;-72
2021/01/05 19:54:06;;;;;;;19.97;15.07;;;5.20;43.60;;;;;;10452843;28;20302;-75
2021/01/05 19:59:08;;;;;;;25.73;18.10;;;5.20;43.70;;;;;;10481065;28;20234;-74
2021/01/05 20:04:14;;;;;;;23.87;17.07;;;5.20;43.70;;;;;;10473319;28;20236;-74
2021/01/05 20:09:17;;;;;;;23.53;16.87;;;5.30;43.80;;;;;;10479761;28;20722;-75
2021/01/05 20:14:19;;;;;;;26.50;18.77;;;5.40;43.80;;;;;;10481104;28;20233;-74
2021/01/05 20:19:22;;;;;;;26.10;17.87;;;5.20;43.60;;;;;;10472095;28;20236;-74
2021/01/05 20:24:25;;;;;;;25.37;17.70;;;5.20;43.80;;;;;;10472907;28;20231;-75
2021/01/05 20:29:27;;;;;;;25.37;16.70;;;5.20;43.80;;;;;;10462596;28;20733;-74
2021/01/05 20:34:30;;;;;;;25.90;18.07;;;5.20;43.90;;;;;;10466916;28;20313;-74
2021/01/05 20:39:32;;;;;;;28.70;18.70;;;5.20;43.90;;;;;;10475238;28;20758;-75
2021/01/05 20:44:34;;;;;;;25.37;17.13;;;5.20;43.90;;;;;;10473269;28;20745;-74
2021/01/05 20:49:38;;;;;;;25.43;18.00;;;5.20;43.90;;;;;;10478467;28;20242;-74
2021/01/05 20:54:40;;;;;;;25.37;17.80;;;5.20;44.00;;;;;;10471929;28;20220;-69
2021/01/05 20:59:46;;;;;;;25.33;17.50;;;5.20;44.00;;;;;;10463943;23;20237;-78
2021/01/05 21:04:49;;;;;;;24.10;17.83;;;5.20;44.20;;;;;;10393510;28;20284;-77
2021/01/05 21:09:51;;;;;;;25.50;17.40;;;5.20;44.20;;;;;;10405423;28;20321;-78
2021/01/05 21:14:54;;;;;;;26.00;17.70;;;5.20;43.90;;;;;;10396079;28;20935;-78
2021/01/05 21:19:57;;;;;;;27.80;18.60;;;5.20;43.80;;;;;;10408789;28;20312;-77
2021/01/05 21:25:00;;;;;;;23.20;15.70;;;5.20;43.90;;;;;;10385977;28;20316;-78
2021/01/05 21:30:03;;;;;;;23.63;16.50;;;5.20;43.90;;;;;;10404101;28;20317;-76
2021/01/05 21:35:09;;;;;;;25.77;16.90;;;5.20;44.00;;;;;;10397570;28;20260;-78
2021/01/05 21:40:13;;;;;;;28.13;18.70;;;5.20;44.00;;;;;;10390618;28;20234;-78
2021/01/05 21:45:17;;;;;;;27.27;18.17;;;5.20;44.10;;;;;;10381711;28;20320;-77
2021/01/05 21:50:22;;;;;;;28.53;19.70;;;5.20;44.00;;;;;;10393227;28;20222;-78
2021/01/05 21:55:24;;;;;;;27.63;18.53;;;5.20;44.00;;;;;;10389721;28;20249;-77
2021/01/05 22:00:33;;;;;;;29.00;19.40;;;5.20;44.00;;;;;;10393579;28;20724;-78
2021/01/05 22:05:36;;;;;;;32.80;20.00;;;5.20;44.20;;;;;;10395037;28;20954;-79
2021/01/05 22:10:40;;;;;;;30.23;19.40;;;5.20;44.00;;;;;;10411384;28;20316;-77
2021/01/05 22:15:43;;;;;;;29.80;19.50;;;5.20;44.10;;;;;;10400264;28;20238;-79
2021/01/05 22:20:46;;;;;;;22.90;15.43;;;5.10;44.10;;;;;;10383469;28;20224;-76
2021/01/05 22:25:50;;;;;;;29.23;18.53;;;5.10;44.30;;;;;;10378229;28;20309;-76
2021/01/05 22:30:53;;;;;;;30.23;18.63;;;5.10;44.20;;;;;;10371276;28;20234;-78
2021/01/05 22:35:57;;;;;;;30.30;19.00;;;5.10;44.10;;;;;;10390678;28;20702;-79
2021/01/05 22:41:01;;;;;;;29.43;19.40;;;5.10;44.20;;;;;;10391690;28;20227;-78
2021/01/05 22:46:05;;;;;;;29.83;19.27;;;5.10;44.30;;;;;;10381049;28;20234;-78
2021/01/05 22:51:11;;;;;;;31.37;18.57;;;5.00;44.10;;;;;;10392714;28;20261;-80
2021/01/05 22:56:13;;;;;;;29.63;18.93;;;5.00;44.50;;;;;;10383871;28;20292;-79
2021/01/05 23:01:19;;;;;;;31.90;20.00;;;4.90;44.30;;;;;;10385149;28;20229;-79
2021/01/05 23:06:22;;;;;;;27.37;19.60;;;4.90;44.40;;;;;;10408217;28;20356;-76
2021/01/05 23:11:24;;;;;;;32.07;20.60;;;5.00;44.60;;;;;;10391040;28;20766;-79
2021/01/05 23:16:28;;;;;;;28.20;19.23;;;5.00;44.50;;;;;;10406541;28;20234;-80
2021/01/05 23:21:33;;;;;;;29.07;18.73;;;5.10;44.50;;;;;;10402590;28;20312;-78
2021/01/05 23:26:36;;;;;;;27.23;17.93;;;5.10;44.60;;;;;;10408798;28;20252;-79
2021/01/05 23:31:42;;;;;;;30.13;18.40;;;5.10;44.40;;;;;;10401149;28;20340;-79
2021/01/05 23:36:48;;;;;;;26.20;17.60;;;5.10;44.30;;;;;;10412158;28;20277;-80
2021/01/05 23:41:51;;;;;;;24.20;16.73;;;5.10;44.20;;;;;;10400260;28;20749;-79
2021/01/05 23:47:02;;;;;;;25.40;16.80;;;5.10;44.20;;;;;;10413288;28;20308;-78
2021/01/05 23:52:07;;;;;;;30.03;18.53;;;5.10;44.30;;;;;;10400819;28;20222;-78
2021/01/05 23:57:09;;;;;;;29.50;18.57;;;5.10;44.40;;;;;;10410496;28;20522;-78
